createdAt,value
2023-05-12T00:01:31.276Z,100288.47
2023-05-12T00:03:59.131Z,100286.78
2023-05-12T00:06:26.344Z,100283.41
2023-05-12T00:08:53.253Z,100284.34
2023-05-12T00:11:22.109Z,100281.69
2023-05-12T00:13:50.152Z,100286.94
2023-05-12T00:16:19.150Z,100279.91
2023-05-12T00:18:46.977Z,100284.34
2023-05-12T00:21:14.791Z,100278.19
2023-05-12T00:23:42.989Z,100276.47
2023-05-12T00:26:09.849Z,100284.16
2023-05-12T00:28:36.802Z,100282.41
2023-05-12T00:31:05.002Z,100286.72
2023-05-12T00:33:33.024Z,100287.63
2023-05-12T00:36:04.265Z,100284.09
2023-05-12T00:38:34.874Z,100291.94
2023-05-12T00:41:02.596Z,100286.84
2023-05-12T00:43:29.809Z,100277.31
2023-05-12T00:45:57.180Z,100286.88
2023-05-12T00:48:24.717Z,100282.59
2023-05-12T00:50:54.863Z,100286.88
2023-05-12T00:53:21.933Z,100286.94
2023-05-12T00:55:48.863Z,100278.28
2023-05-12T00:58:15.858Z,100286.94
2023-05-12T01:00:42.842Z,100287.88
2023-05-12T01:03:10.142Z,100289.56
2023-05-12T01:05:51.435Z,100295.66
2023-05-12T01:08:20.439Z,100299.19
2023-05-12T01:10:47.649Z,100294.88
2023-05-12T01:13:14.668Z,100289.69
2023-05-12T01:15:46.910Z,100291.34
2023-05-12T01:18:21.859Z,100295.72
2023-05-12T01:20:50.476Z,100295.75
2023-05-12T01:23:20.528Z,100290.50
2023-05-12T01:25:50.601Z,100296.47
2023-05-12T01:28:18.389Z,100301.53
2023-05-12T01:30:46.147Z,100302.53
2023-05-12T01:33:13.581Z,100304.25
2023-05-12T01:35:40.526Z,100302.59
2023-05-12T01:38:07.277Z,100308.66
2023-05-12T01:40:34.176Z,100305.25
2023-05-12T01:43:00.999Z,100307.00
2023-05-12T01:45:27.822Z,100314.78
2023-05-12T01:47:54.651Z,100303.50
2023-05-12T01:50:22.317Z,100299.09
2023-05-12T01:52:49.661Z,100301.78
2023-05-12T01:55:16.708Z,100300.78
2023-05-12T01:57:43.575Z,100295.47
2023-05-12T02:00:12.851Z,100288.56
2023-05-12T02:02:43.407Z,100285.00
2023-05-12T02:05:10.532Z,100281.63
2023-05-12T02:07:39.384Z,100286.00
2023-05-12T02:10:07.337Z,100291.25
2023-05-12T02:12:34.751Z,100283.44
2023-05-12T02:15:05.849Z,100280.91
2023-05-12T02:17:32.963Z,100281.75
2023-05-12T02:20:00.050Z,100275.72
2023-05-12T02:22:27.148Z,100283.56
2023-05-12T02:24:54.093Z,100272.25
2023-05-12T02:27:21.126Z,100271.34
2023-05-12T02:29:48.102Z,100269.72
2023-05-12T02:32:14.911Z,100265.31
2023-05-12T02:34:41.930Z,100278.31
2023-05-12T02:37:08.916Z,100275.63
2023-05-12T02:39:35.762Z,100278.28
2023-05-12T02:42:02.662Z,100272.25
2023-05-12T02:44:29.544Z,100269.63
2023-05-12T02:46:58.183Z,100264.47
2023-05-12T02:49:25.044Z,100277.41
2023-05-12T02:51:55.380Z,100284.41
2023-05-12T02:54:22.349Z,100276.63
2023-05-12T02:56:49.296Z,100262.72
2023-05-12T02:59:16.353Z,100267.13
2023-05-12T03:01:43.375Z,100261.00
2023-05-12T03:04:10.390Z,100258.44
2023-05-12T03:06:37.326Z,100263.63
2023-05-12T03:09:05.343Z,100260.91
2023-05-12T03:11:34.265Z,100268.78
2023-05-12T03:14:01.268Z,100262.66
2023-05-12T03:16:28.286Z,100262.69
2023-05-12T03:18:55.361Z,100268.88
2023-05-12T03:21:23.277Z,100260.06
2023-05-12T03:23:52.882Z,100272.28
2023-05-12T03:26:20.543Z,100271.38
2023-05-12T03:28:47.415Z,100268.81
2023-05-12T03:31:15.194Z,100272.31
2023-05-12T03:33:42.053Z,100275.88
2023-05-12T03:36:09.119Z,100275.91
2023-05-12T03:38:36.423Z,100268.03
2023-05-12T03:41:04.911Z,100269.69
2023-05-12T03:43:32.284Z,100269.69
2023-05-12T03:46:01.091Z,100276.69
2023-05-12T03:48:27.988Z,100271.47
2023-05-12T03:50:55.078Z,100270.59
2023-05-12T03:53:21.933Z,100282.75
2023-05-12T03:55:49.689Z,100286.31
2023-05-12T03:58:16.477Z,100286.34
2023-05-12T04:00:44.265Z,100281.94
2023-05-12T04:03:11.264Z,100297.56
2023-05-12T04:05:39.675Z,100306.16
2023-05-12T04:08:07.075Z,100303.59
2023-05-12T04:10:38.078Z,100299.25
2023-05-12T04:13:05.140Z,100305.31
2023-05-12T04:15:32.834Z,100311.47
2023-05-12T04:17:59.736Z,100314.84
2023-05-12T04:20:28.638Z,100317.50
2023-05-12T04:22:55.568Z,100320.97
2023-05-12T04:25:24.296Z,100323.66
2023-05-12T04:27:51.428Z,100322.00
2023-05-12T04:30:20.510Z,100322.88
2023-05-12T04:32:48.737Z,100324.72
2023-05-12T04:35:15.848Z,100323.84
2023-05-12T04:37:42.861Z,100326.47
2023-05-12T04:40:11.009Z,100326.38
2023-05-12T04:42:40.863Z,100325.56
2023-05-12T04:45:11.021Z,100320.34
2023-05-12T04:47:38.181Z,100320.31
2023-05-12T04:50:06.914Z,100334.25
2023-05-12T04:52:33.807Z,100325.56
2023-05-12T04:55:00.697Z,100319.47
2023-05-12T04:57:27.983Z,100328.16
2023-05-12T04:59:55.711Z,100327.28
2023-05-12T05:02:24.615Z,100319.50
2023-05-12T05:04:54.739Z,100319.53
2023-05-12T05:07:21.633Z,100319.50
2023-05-12T05:09:50.245Z,100324.69
2023-05-12T05:12:17.101Z,100327.31
2023-05-12T05:14:43.939Z,100323.00
2023-05-12T05:17:12.574Z,100322.13
2023-05-12T05:19:52.790Z,100312.59
2023-05-12T05:22:24.796Z,100312.53
2023-05-12T05:24:52.810Z,100318.66
2023-05-12T05:27:19.899Z,100312.63
2023-05-12T05:29:46.903Z,100315.22
2023-05-12T05:32:15.615Z,100311.75
2023-05-12T05:34:43.483Z,100316.03
2023-05-12T05:37:11.290Z,100309.09
2023-05-12T05:39:38.423Z,100320.41
2023-05-12T05:42:07.868Z,100330.88
2023-05-12T05:44:36.712Z,100327.38
2023-05-12T05:47:03.867Z,100316.94
2023-05-12T05:49:30.930Z,100329.06
2023-05-12T05:51:59.850Z,100326.50
2023-05-12T05:54:26.690Z,100336.94
2023-05-12T05:56:56.173Z,100327.44
2023-05-12T05:59:23.034Z,100327.44
2023-05-12T06:01:50.145Z,100335.31
2023-05-12T06:04:18.080Z,100335.31
2023-05-12T06:06:45.820Z,100330.13
2023-05-12T06:09:13.636Z,100334.47
2023-05-12T06:11:41.710Z,100344.09
2023-05-12T06:14:09.458Z,100339.75
2023-05-12T06:16:37.413Z,100337.13
2023-05-12T06:19:05.354Z,100336.25
2023-05-12T06:21:34.082Z,100336.28
2023-05-12T06:24:01.932Z,100336.25
2023-05-12T06:26:29.659Z,100339.75
2023-05-12T06:28:57.445Z,100333.66
2023-05-12T06:31:24.362Z,100339.78
2023-05-12T06:33:51.305Z,100338.88
2023-05-12T06:36:18.194Z,100345.84
2023-05-12T06:38:46.076Z,100335.38
2023-05-12T06:41:14.882Z,100334.50
2023-05-12T06:43:44.371Z,100337.13
2023-05-12T06:46:11.337Z,100338.03
2023-05-12T06:48:38.338Z,100341.47
2023-05-12T06:51:05.453Z,100339.75
2023-05-12T06:53:33.973Z,100338.00
2023-05-12T06:56:01.900Z,100344.09
2023-05-12T06:58:29.610Z,100349.31
2023-05-12T07:00:58.315Z,100353.69
2023-05-12T07:03:27.042Z,100347.56
2023-05-12T07:05:53.999Z,100350.16
2023-05-12T07:08:22.859Z,100351.06
2023-05-12T07:10:49.827Z,100342.31
2023-05-12T07:13:17.457Z,100358.00
2023-05-12T07:15:46.320Z,100363.28
2023-05-12T07:18:15.159Z,100359.78
2023-05-12T07:20:43.018Z,100358.03
2023-05-12T07:23:10.287Z,100367.63
2023-05-12T07:25:37.334Z,100356.28
2023-05-12T07:28:06.778Z,100360.63
2023-05-12T07:30:33.867Z,100371.06
2023-05-12T07:33:02.864Z,100359.72
2023-05-12T07:35:29.722Z,100371.91
2023-05-12T07:37:56.806Z,100375.44
2023-05-12T07:40:23.718Z,100376.31
2023-05-12T07:42:50.679Z,100372.81
2023-05-12T07:45:23.156Z,100375.44
2023-05-12T07:47:52.222Z,100378.03
2023-05-12T07:50:19.742Z,100379.72
2023-05-12T07:52:51.104Z,100388.47
2023-05-12T07:55:19.969Z,100395.44
2023-05-12T07:57:49.322Z,100399.81
2023-05-12T08:00:17.313Z,100400.69
2023-05-12T08:02:44.370Z,100393.75
2023-05-12T08:05:11.496Z,100395.47
2023-05-12T08:07:39.058Z,100412.06
2023-05-12T08:10:06.712Z,100410.34
2023-05-12T08:12:34.380Z,100408.63
2023-05-12T08:15:02.227Z,100411.22
2023-05-12T08:17:29.379Z,100413.81
2023-05-12T08:19:56.562Z,100412.13
2023-05-12T08:22:23.494Z,100412.13
2023-05-12T08:24:52.731Z,100413.00
2023-05-12T08:27:21.130Z,100415.59
2023-05-12T08:29:47.986Z,100424.25
2023-05-12T08:32:15.322Z,100419.81
2023-05-12T08:34:43.028Z,100424.16
2023-05-12T08:37:11.863Z,100415.44
2023-05-12T08:39:39.603Z,100418.09
2023-05-12T08:42:26.532Z,100424.19
2023-05-12T08:44:54.563Z,100425.03
2023-05-12T08:47:23.065Z,100422.34
2023-05-12T08:50:00.156Z,100438.88
2023-05-12T08:52:31.920Z,100429.31
2023-05-12T08:55:00.826Z,100432.72
2023-05-12T08:57:29.578Z,100441.38
2023-05-12T09:00:01.869Z,100441.31
2023-05-12T09:02:44.756Z,100447.47
2023-05-12T09:05:19.753Z,100444.91
2023-05-12T09:07:51.419Z,100438.69
2023-05-12T09:10:34.194Z,100442.16
2023-05-12T09:13:14.857Z,100440.47
2023-05-12T09:15:46.009Z,100439.59
2023-05-12T09:18:13.676Z,100436.13
2023-05-12T09:20:40.810Z,100442.28
2023-05-12T09:23:20.067Z,100443.16
2023-05-12T09:26:00.651Z,100442.09
2023-05-12T09:28:38.773Z,100443.91
2023-05-12T09:31:16.258Z,100431.78
2023-05-12T09:33:44.091Z,100436.84
2023-05-12T09:36:11.814Z,100433.50
2023-05-12T09:38:39.439Z,100434.38
2023-05-12T09:41:07.068Z,100428.28
2023-05-12T09:43:33.939Z,100436.13
2023-05-12T09:46:06.339Z,100444.00
2023-05-12T09:48:34.073Z,100436.13
2023-05-12T09:51:01.985Z,100447.50
2023-05-12T09:53:29.688Z,100441.41
2023-05-12T09:55:57.476Z,100444.00
2023-05-12T09:58:27.472Z,100443.91
2023-05-12T10:01:18.312Z,100442.25
2023-05-12T10:03:49.528Z,100444.88
2023-05-12T10:06:30.493Z,100434.47
2023-05-12T10:09:14.371Z,100439.69
2023-05-12T10:11:41.577Z,100444.03
2023-05-12T10:14:10.028Z,100441.47
2023-05-12T10:16:39.395Z,100440.69
2023-05-12T10:19:06.949Z,100446.78
2023-05-12T10:21:36.926Z,100447.69
2023-05-12T10:24:04.928Z,100450.38
2023-05-12T10:26:34.028Z,100443.41
2023-05-12T10:29:01.795Z,100455.66
2023-05-12T10:31:30.512Z,100453.91
2023-05-12T10:34:00.005Z,100454.81
2023-05-12T10:36:27.928Z,100460.03
2023-05-12T10:38:56.746Z,100458.31
2023-05-12T10:41:34.876Z,100463.50
2023-05-12T10:44:03.621Z,100461.78
2023-05-12T10:46:30.941Z,100457.44
2023-05-12T10:49:07.026Z,100451.34
2023-05-12T10:51:37.886Z,100457.44
2023-05-12T10:54:08.167Z,100458.31
2023-05-12T10:56:38.755Z,100463.53
2023-05-12T10:59:18.680Z,100460.06
2023-05-12T11:02:01.849Z,100464.34
2023-05-12T11:04:52.746Z,100451.28
2023-05-12T11:07:31.610Z,100447.81
2023-05-12T11:10:04.724Z,100442.56
2023-05-12T11:12:37.603Z,100450.38
2023-05-12T11:15:06.158Z,100455.50
2023-05-12T11:17:34.268Z,100463.34
2023-05-12T11:20:02.248Z,100467.75
2023-05-12T11:22:31.109Z,100475.53
2023-05-12T11:24:58.954Z,100489.47
2023-05-12T11:27:26.693Z,100492.94
2023-05-12T11:30:03.023Z,100501.66
2023-05-12T11:32:30.460Z,100506.13
2023-05-12T11:35:18.703Z,100509.63
2023-05-12T11:37:46.676Z,100511.41
2023-05-12T11:40:22.519Z,100509.63
2023-05-12T11:42:53.040Z,100510.50
2023-05-12T11:45:30.679Z,100509.50
2023-05-12T11:48:13.995Z,100510.44
2023-05-12T11:50:44.670Z,100506.06
2023-05-12T11:53:16.051Z,100498.31
2023-05-12T11:55:54.095Z,100494.88
2023-05-12T11:58:30.808Z,100499.22
2023-05-12T12:01:08.631Z,100507.97
2023-05-12T12:03:49.109Z,100510.50
2023-05-12T12:06:19.322Z,100497.47
2023-05-12T12:08:55.131Z,100494.75
2023-05-12T12:11:28.370Z,100493.94
2023-05-12T12:13:56.999Z,100485.25
2023-05-12T12:16:29.527Z,100484.38
2023-05-12T12:18:58.684Z,100478.28
2023-05-12T12:21:26.042Z,100475.66
2023-05-12T12:23:53.013Z,100479.16
2023-05-12T12:26:23.087Z,100480.06
2023-05-12T12:28:50.173Z,100479.19
2023-05-12T12:31:17.710Z,100473.97
2023-05-12T12:33:44.850Z,100480.94
2023-05-12T12:36:12.931Z,100482.63
2023-05-12T12:38:41.128Z,100493.09
2023-05-12T12:41:09.905Z,100487.03
2023-05-12T12:43:37.919Z,100479.19
2023-05-12T12:46:06.241Z,100490.53
2023-05-12T12:48:34.839Z,100488.81
2023-05-12T12:51:02.136Z,100489.66
2023-05-12T12:53:30.774Z,100494.94
2023-05-12T12:55:58.441Z,100491.44
2023-05-12T12:58:25.485Z,100481.88
2023-05-12T13:00:53.297Z,100487.94
2023-05-12T13:03:20.560Z,100488.84
2023-05-12T13:05:47.685Z,100482.75
2023-05-12T13:08:14.573Z,100489.72
2023-05-12T13:10:42.108Z,100487.09
2023-05-12T13:13:11.988Z,100479.28
2023-05-12T13:15:40.176Z,100469.63
2023-05-12T13:18:07.236Z,100477.50
2023-05-12T13:20:34.299Z,100474.88
2023-05-12T13:23:01.349Z,100472.28
2023-05-12T13:25:28.254Z,100475.78
2023-05-12T13:27:56.988Z,100470.53
2023-05-12T13:30:25.212Z,100462.69
2023-05-12T13:32:52.434Z,100467.91
2023-05-12T13:35:23.061Z,100459.19
2023-05-12T13:37:52.035Z,100454.84
2023-05-12T13:40:19.912Z,100454.88
2023-05-12T13:42:47.950Z,100462.72
2023-05-12T13:45:17.845Z,100456.59
2023-05-12T13:47:48.841Z,100460.06
2023-05-12T13:50:16.441Z,100465.31
2023-05-12T13:52:44.271Z,100462.69
2023-05-12T13:55:18.486Z,100475.78
2023-05-12T13:57:47.703Z,100481.03
2023-05-12T14:00:17.567Z,100484.50
2023-05-12T14:02:45.727Z,100484.44
2023-05-12T14:05:15.736Z,100478.34
2023-05-12T14:07:42.760Z,100489.72
2023-05-12T14:10:11.706Z,100479.25
2023-05-12T14:12:41.466Z,100487.97
2023-05-12T14:15:24.074Z,100486.25
2023-05-12T14:17:56.770Z,100489.69
2023-05-12T14:20:23.582Z,100487.97
2023-05-12T14:22:50.991Z,100477.47
2023-05-12T14:25:17.997Z,100480.13
2023-05-12T14:27:47.613Z,100478.38
2023-05-12T14:30:15.365Z,100481.78
2023-05-12T14:32:43.082Z,100480.88
2023-05-12T14:35:11.822Z,100472.94
2023-05-12T14:37:39.736Z,100477.38
2023-05-12T14:40:09.141Z,100476.34
2023-05-12T14:42:35.945Z,100479.91
2023-05-12T14:45:05.161Z,100461.50
2023-05-12T14:47:32.283Z,100457.25
2023-05-12T14:49:59.160Z,100453.66
2023-05-12T14:52:27.757Z,100454.47
2023-05-12T14:54:54.676Z,100449.16
2023-05-12T14:57:21.867Z,100447.34
2023-05-12T14:59:56.555Z,100446.47
2023-05-12T15:02:23.399Z,100450.88
2023-05-12T15:04:50.567Z,100450.84
2023-05-12T15:07:17.383Z,100449.94
2023-05-12T15:09:44.259Z,100461.19
2023-05-12T15:12:10.962Z,100461.88
2023-05-12T15:14:37.965Z,100461.91
2023-05-12T15:17:05.140Z,100473.06
2023-05-12T15:19:32.882Z,100464.22
2023-05-12T15:22:01.556Z,100464.03
2023-05-12T15:24:29.426Z,100464.81
2023-05-12T15:26:56.493Z,100470.06
2023-05-12T15:29:23.869Z,100462.31
2023-05-12T15:31:51.900Z,100470.97
2023-05-12T15:34:18.936Z,100476.31
2023-05-12T15:36:49.296Z,100465.78
2023-05-12T15:39:17.144Z,100470.22
2023-05-12T15:41:44.754Z,100465.94
2023-05-12T15:44:11.533Z,100467.59
2023-05-12T15:46:38.323Z,100461.53
2023-05-12T15:49:05.381Z,100462.16
2023-05-12T15:51:34.037Z,100468.59
2023-05-12T15:54:01.359Z,100472.47
2023-05-12T15:56:28.221Z,100468.81
2023-05-12T15:58:56.847Z,100475.00
2023-05-12T16:01:25.386Z,100473.41
2023-05-12T16:03:53.729Z,100477.00
2023-05-12T16:06:24.284Z,100476.09
2023-05-12T16:08:51.140Z,100485.84
2023-05-12T16:11:19.876Z,100495.41
2023-05-12T16:13:46.774Z,100495.31
2023-05-12T16:16:13.701Z,100501.56
2023-05-12T16:18:40.771Z,100496.16
2023-05-12T16:21:09.620Z,100495.25
2023-05-12T16:23:36.558Z,100502.34
2023-05-12T16:26:03.520Z,100502.41
2023-05-12T16:28:32.129Z,100512.03
2023-05-12T16:30:58.923Z,100514.56
2023-05-12T16:33:27.815Z,100515.53
2023-05-12T16:35:56.568Z,100505.03
2023-05-12T16:38:23.564Z,100505.91
2023-05-12T16:40:52.620Z,100506.03
2023-05-12T16:43:20.326Z,100518.22
2023-05-12T16:46:00.348Z,100510.38
2023-05-12T16:48:34.311Z,100516.47
2023-05-12T16:51:06.826Z,100520.03
2023-05-12T16:53:35.360Z,100519.09
2023-05-12T16:56:04.947Z,100521.75
2023-05-12T16:58:35.336Z,100513.91
2023-05-12T17:01:03.776Z,100519.19
2023-05-12T17:03:31.856Z,100531.47
2023-05-12T17:05:59.760Z,100522.66
2023-05-12T17:08:26.993Z,100521.78
2023-05-12T17:10:54.718Z,100534.06
2023-05-12T17:13:22.619Z,100529.78
2023-05-12T17:15:49.696Z,100530.59
2023-05-12T17:18:16.771Z,100542.75
2023-05-12T17:20:45.543Z,100540.09
2023-05-12T17:23:12.915Z,100540.13
2023-05-12T17:25:40.549Z,100541.88
2023-05-12T17:28:08.409Z,100546.19
2023-05-12T17:30:37.448Z,100551.41
2023-05-12T17:33:08.000Z,100558.47
2023-05-12T17:35:36.718Z,100546.22
2023-05-12T17:38:03.670Z,100547.22
2023-05-12T17:40:31.574Z,100547.25
2023-05-12T17:42:58.559Z,100560.34
2023-05-12T17:45:27.849Z,100556.91
2023-05-12T17:47:56.898Z,100559.53
2023-05-12T17:50:24.628Z,100556.94
2023-05-12T17:52:55.017Z,100558.69
2023-05-12T17:55:22.356Z,100563.03
2023-05-12T17:57:52.889Z,100570.03
2023-05-12T18:00:22.126Z,100568.28
2023-05-12T18:02:48.975Z,100572.63
2023-05-12T18:05:16.009Z,100584.00
2023-05-12T18:07:42.864Z,100578.75
2023-05-12T18:10:12.222Z,100577.03
2023-05-12T18:12:39.918Z,100580.50
2023-05-12T18:15:07.689Z,100575.25
2023-05-12T18:17:35.887Z,100594.44
2023-05-12T18:20:07.302Z,100591.81
2023-05-12T18:22:34.102Z,100597.91
2023-05-12T18:25:00.972Z,100599.66
2023-05-12T18:27:27.777Z,100604.91
2023-05-12T18:29:54.621Z,100604.00
2023-05-12T18:32:21.840Z,100601.41
2023-05-12T18:34:49.158Z,100604.88
2023-05-12T18:37:18.053Z,100609.28
2023-05-12T18:39:44.980Z,100616.16
2023-05-12T18:42:12.168Z,100609.22
2023-05-12T18:44:41.278Z,100606.56
2023-05-12T18:47:09.160Z,100619.69
2023-05-12T18:49:36.764Z,100615.34
2023-05-12T18:52:05.064Z,100618.00
2023-05-12T18:54:31.768Z,100623.19
2023-05-12T18:56:58.616Z,100624.97
2023-05-12T18:59:25.452Z,100620.59
2023-05-12T19:01:52.342Z,100618.88
2023-05-12T19:04:21.985Z,100620.63
2023-05-12T19:06:49.235Z,100630.22
2023-05-12T19:09:16.112Z,100628.47
2023-05-12T19:11:43.219Z,100626.69
2023-05-12T19:14:09.997Z,100625.81
2023-05-12T19:16:38.221Z,100624.09
2023-05-12T19:19:05.279Z,100639.84
2023-05-12T19:21:33.702Z,100638.97
2023-05-12T19:24:01.547Z,100639.84
2023-05-12T19:26:29.285Z,100642.47
2023-05-12T19:28:56.651Z,100646.84
2023-05-12T19:31:23.552Z,100641.63
2023-05-12T19:33:51.853Z,100643.38
2023-05-12T19:36:18.895Z,100646.00
2023-05-12T19:38:45.902Z,100647.75
2023-05-12T19:41:12.822Z,100649.44
2023-05-12T19:43:40.591Z,100659.03
2023-05-12T19:46:08.653Z,100656.44
2023-05-12T19:48:38.077Z,100670.38
2023-05-12T19:51:08.201Z,100662.50
2023-05-12T19:53:35.977Z,100665.19
2023-05-12T19:56:03.050Z,100671.28
2023-05-12T19:58:29.928Z,100660.78
2023-05-12T20:00:57.773Z,100656.44
2023-05-12T20:03:24.876Z,100657.28
2023-05-12T20:05:51.911Z,100657.28
2023-05-12T20:08:21.170Z,100655.56
2023-05-12T20:10:48.915Z,100664.28
2023-05-12T20:13:18.865Z,100646.78
2023-05-12T20:15:45.909Z,100648.53
2023-05-12T20:18:15.780Z,100660.63
2023-05-12T20:20:44.614Z,100663.25
2023-05-12T20:23:11.493Z,100657.22
2023-05-12T20:25:38.398Z,100666.81
2023-05-12T20:28:07.600Z,100660.72
2023-05-12T20:30:35.302Z,100657.22
2023-05-12T20:33:02.399Z,100650.25
2023-05-12T20:35:29.512Z,100646.75
2023-05-12T20:37:56.408Z,100645.88
2023-05-12T20:40:23.536Z,100653.66
2023-05-12T20:42:51.503Z,100649.31
2023-05-12T20:45:18.499Z,100646.56
2023-05-12T20:47:47.496Z,100650.06
2023-05-12T20:50:14.726Z,100643.97
2023-05-12T20:52:45.673Z,100642.19
2023-05-12T20:55:12.518Z,100649.19
2023-05-12T20:57:40.367Z,100643.06
2023-05-12T21:00:11.573Z,100641.31
2023-05-12T21:02:39.743Z,100638.72
2023-05-12T21:05:08.812Z,100638.69
2023-05-12T21:07:35.819Z,100645.63
2023-05-12T21:10:03.961Z,100647.31
2023-05-12T21:12:31.662Z,100655.00
2023-05-12T21:14:59.624Z,100650.66
2023-05-12T21:17:27.914Z,100650.78
2023-05-12T21:19:55.646Z,100649.78
2023-05-12T21:22:24.487Z,100652.34
2023-05-12T21:24:53.383Z,100653.06
2023-05-12T21:27:20.336Z,100647.09
2023-05-12T21:29:47.176Z,100648.94
2023-05-12T21:32:14.120Z,100651.63
2023-05-12T21:34:41.059Z,100642.06
2023-05-12T21:37:08.882Z,100651.41
2023-05-12T21:39:35.754Z,100655.09
2023-05-12T21:42:04.840Z,100647.81
2023-05-12T21:44:34.424Z,100656.66
2023-05-12T21:47:05.559Z,100659.31
2023-05-12T21:49:33.291Z,100651.59
2023-05-12T21:52:02.184Z,100658.59
2023-05-12T21:54:33.605Z,100649.00
2023-05-12T21:57:01.653Z,100654.09
2023-05-12T21:59:29.521Z,100654.09
2023-05-12T22:01:57.417Z,100650.69
2023-05-12T22:04:25.004Z,100659.47
2023-05-12T22:06:51.933Z,100650.81
2023-05-12T22:09:22.034Z,100659.47
2023-05-12T22:11:49.698Z,100654.16
2023-05-12T22:14:17.545Z,100660.25
2023-05-12T22:16:45.063Z,100662.81
2023-05-12T22:19:12.869Z,100657.59
2023-05-12T22:21:42.517Z,100654.22
2023-05-12T22:24:10.459Z,100655.13
2023-05-12T22:26:40.091Z,100654.31
2023-05-12T22:29:09.823Z,100647.34
2023-05-12T22:31:38.649Z,100650.06
2023-05-12T22:34:06.302Z,100642.97
2023-05-12T22:36:33.622Z,100658.47
2023-05-12T22:39:04.077Z,100653.28
2023-05-12T22:41:31.737Z,100655.03
2023-05-12T22:43:59.486Z,100651.56
2023-05-12T22:46:28.451Z,100647.25
2023-05-12T22:48:56.333Z,100647.19
2023-05-12T22:51:24.971Z,100646.25
2023-05-12T22:53:52.666Z,100660.22
2023-05-12T22:56:20.288Z,100647.19
2023-05-12T22:58:48.122Z,100649.78
2023-05-12T23:01:15.803Z,100644.44
2023-05-12T23:03:43.692Z,100639.41
2023-05-12T23:06:11.461Z,100639.50
2023-05-12T23:08:40.949Z,100647.31
2023-05-12T23:11:09.868Z,100649.84
2023-05-12T23:13:36.796Z,100642.72
2023-05-12T23:16:07.302Z,100641.88
2023-05-12T23:18:35.097Z,100640.22
2023-05-12T23:21:03.382Z,100637.63
2023-05-12T23:23:31.889Z,100635.13
2023-05-12T23:25:59.150Z,100631.63
2023-05-12T23:28:26.814Z,100628.97
2023-05-12T23:30:54.484Z,100641.91
2023-05-12T23:33:23.282Z,100641.00
2023-05-12T23:35:50.919Z,100647.06
2023-05-12T23:38:18.588Z,100636.66
2023-05-12T23:40:47.600Z,100641.00
2023-05-12T23:43:15.355Z,100635.81
2023-05-12T23:45:44.087Z,100639.34
2023-05-12T23:48:11.816Z,100631.56
2023-05-12T23:50:41.016Z,100632.50
2023-05-12T23:53:08.731Z,100636.00
2023-05-12T23:55:37.573Z,100632.47
2023-05-12T23:58:05.302Z,100629.88
